This is the latest recevied weather packets stored in our database for station/object DL3MEB-6. If no packets are shown the sender has not sent any weather packets the latest 10 day(s).
| Time | Temp. | Humidity | Pressure | Rain* | Wind** | Luminosity | Snow |
|---|---|---|---|---|---|---|---|
| 1788113187 | 25.56° C | 52% | 1013.6 hPa | 0 mm | - | - | - |
| 1788111379 | 26.11° C | 48% | 1013.3 hPa | 0 mm | - | - | - |
| 1788110468 | 26.67° C | 47% | 1013.3 hPa | 0 mm | - | - | - |
| 1788109567 | 27.22° C | 47% | 1013.2 hPa | 0 mm | - | - | - |
| 1788108661 | 27.78° C | 44% | 1013.1 hPa | 0 mm | - | - | - |
| 1788107749 | 28.33° C | 44% | 1013.1 hPa | 0 mm | - | - | - |
| 1788105942 | 28.89° C | 42% | 1013 hPa | 0 mm | - | - | - |
| 1788105041 | 29.44° C | 42% | 1013 hPa | 0 mm | - | - | - |
| 1788104137 | 29.44° C | 41% | 1013.2 hPa | 0 mm | - | - | - |
| 1788103226 | 28.89° C | 40% | 1013.2 hPa | 0 mm | - | - | - |
| 1788102315 | 29.44° C | 42% | 1013.2 hPa | 0 mm | - | - | - |
| 1788101411 | 28.89° C | 42% | 1013.3 hPa | 0 mm | - | - | - |
| 1788100506 | 28.89° C | 42% | 1013.4 hPa | 0 mm | - | - | - |
| 1788099596 | 28.89° C | 43% | 1013.5 hPa | 0 mm | - | - | - |
| 1788098690 | 28.89° C | 43% | 1013.5 hPa | 0 mm | - | - | - |
| 1788096874 | 28.33° C | 42% | 1013.7 hPa | 0 mm | - | - | - |
| 1788095972 | 28.33° C | 42% | 1013.9 hPa | 0 mm | - | - | - |
| 1788095073 | 28.33° C | 42% | 1013.9 hPa | 0 mm | - | - | - |
| 1788094168 | 27.22° C | 43% | 1014.1 hPa | 0 mm | - | - | - |
| 1788093262 | 26.67° C | 45% | 1014.3 hPa | 0 mm | - | - | - |
| 1788092359 | 26.67° C | 46% | 1014.5 hPa | 0 mm | - | - | - |
| 1788089642 | 25.56° C | 51% | 1014.8 hPa | 0 mm | - | - | - |
| 1788088736 | 25.56° C | 51% | 1014.9 hPa | 0 mm | - | - | - |
| 1788086921 | 25° C | 52% | 1015.2 hPa | 0 mm | - | - | - |
| 1788085103 | 23.89° C | 56% | 1015.5 hPa | 0 mm | - | - | - |
* Rain latest hour (hover to see other rain measurements)
** Current wind speed in m/s (hover to see current wind gust speed)